Terminal Aerodrome Forecast
Issued by NWS Omaha/Valley, NE

Home | Current Version | Previous Version | Text Only | Print | Product List | Glossary On
Versions: 1 2 3 4 5 6 7 8 9 10 11 12 13 14 15 16 17 18 19 20
000
FTUS43 KOAX 162329
TAFLNK
TAF
KLNK 162329Z 1700/1724 32025G32KT P6SM BKN080
     FM170200 33018G24KT P6SM BKN025
     FM170300 34014KT P6SM OVC015
     FM170900 34008KT P6SM OVC012
     FM171500 36008KT P6SM SCT025 BKN100=

USA.gov is the U.S. government's official web portal to all federal, state and local government web resources and services.